sensor_id;sensor_type;location;lat;lon;timestamp;P1;durP1;ratioP1;P2;durP2;ratioP2
68050;SDS011;54839;51.364;7.246;2024-03-08T00:00:07;23.60;;;17.87;;
68050;SDS011;54839;51.364;7.246;2024-03-08T00:02:36;19.43;;;17.33;;
68050;SDS011;54839;51.364;7.246;2024-03-08T00:05:02;24.47;;;19.80;;
68050;SDS011;54839;51.364;7.246;2024-03-08T00:07:29;21.53;;;16.83;;
68050;SDS011;54839;51.364;7.246;2024-03-08T00:09:55;22.30;;;19.17;;
68050;SDS011;54839;51.364;7.246;2024-03-08T00:12:20;23.03;;;18.50;;
68050;SDS011;54839;51.364;7.246;2024-03-08T00:14:46;27.00;;;19.47;;
68050;SDS011;54839;51.364;7.246;2024-03-08T00:17:11;21.47;;;17.97;;
68050;SDS011;54839;51.364;7.246;2024-03-08T00:19:37;26.20;;;19.40;;
68050;SDS011;54839;51.364;7.246;2024-03-08T00:22:02;20.27;;;17.77;;
68050;SDS011;54839;51.364;7.246;2024-03-08T00:24:28;23.67;;;19.67;;
68050;SDS011;54839;51.364;7.246;2024-03-08T00:26:55;24.40;;;20.40;;
68050;SDS011;54839;51.364;7.246;2024-03-08T00:29:21;23.63;;;18.47;;
68050;SDS011;54839;51.364;7.246;2024-03-08T00:31:47;22.40;;;17.97;;
68050;SDS011;54839;51.364;7.246;2024-03-08T00:34:12;34.10;;;20.27;;
68050;SDS011;54839;51.364;7.246;2024-03-08T00:36:38;22.20;;;18.70;;
68050;SDS011;54839;51.364;7.246;2024-03-08T00:39:04;25.60;;;19.13;;
68050;SDS011;54839;51.364;7.246;2024-03-08T00:41:31;26.50;;;18.87;;
68050;SDS011;54839;51.364;7.246;2024-03-08T00:43:57;25.13;;;20.60;;
68050;SDS011;54839;51.364;7.246;2024-03-08T00:46:23;22.97;;;19.30;;
68050;SDS011;54839;51.364;7.246;2024-03-08T00:48:49;23.33;;;19.53;;
68050;SDS011;54839;51.364;7.246;2024-03-08T00:51:14;23.43;;;17.83;;
68050;SDS011;54839;51.364;7.246;2024-03-08T00:53:41;25.23;;;19.57;;
68050;SDS011;54839;51.364;7.246;2024-03-08T00:56:09;23.57;;;19.70;;
68050;SDS011;54839;51.364;7.246;2024-03-08T00:58:38;27.13;;;19.40;;
68050;SDS011;54839;51.364;7.246;2024-03-08T01:01:05;22.97;;;19.10;;
68050;SDS011;54839;51.364;7.246;2024-03-08T01:03:31;22.90;;;18.80;;
68050;SDS011;54839;51.364;7.246;2024-03-08T01:05:57;21.50;;;17.80;;
68050;SDS011;54839;51.364;7.246;2024-03-08T01:08:22;26.30;;;20.00;;
68050;SDS011;54839;51.364;7.246;2024-03-08T01:10:48;25.00;;;19.60;;
68050;SDS011;54839;51.364;7.246;2024-03-08T01:13:15;26.50;;;19.30;;
68050;SDS011;54839;51.364;7.246;2024-03-08T01:15:41;25.40;;;20.53;;
68050;SDS011;54839;51.364;7.246;2024-03-08T01:18:06;23.40;;;19.10;;
68050;SDS011;54839;51.364;7.246;2024-03-08T01:20:32;25.40;;;20.20;;
68050;SDS011;54839;51.364;7.246;2024-03-08T01:22:58;24.07;;;20.13;;
68050;SDS011;54839;51.364;7.246;2024-03-08T01:25:23;24.10;;;20.33;;
68050;SDS011;54839;51.364;7.246;2024-03-08T01:27:49;28.27;;;19.93;;
68050;SDS011;54839;51.364;7.246;2024-03-08T01:30:15;24.97;;;18.47;;
68050;SDS011;54839;51.364;7.246;2024-03-08T01:32:42;25.57;;;20.00;;
68050;SDS011;54839;51.364;7.246;2024-03-08T01:35:09;25.60;;;20.17;;
68050;SDS011;54839;51.364;7.246;2024-03-08T01:37:35;23.07;;;20.00;;
68050;SDS011;54839;51.364;7.246;2024-03-08T01:40:01;24.37;;;20.30;;
68050;SDS011;54839;51.364;7.246;2024-03-08T01:42:30;29.87;;;20.57;;
68050;SDS011;54839;51.364;7.246;2024-03-08T01:44:55;24.77;;;20.30;;
68050;SDS011;54839;51.364;7.246;2024-03-08T01:47:22;25.40;;;21.27;;
68050;SDS011;54839;51.364;7.246;2024-03-08T01:49:48;30.20;;;21.47;;
68050;SDS011;54839;51.364;7.246;2024-03-08T01:52:15;28.23;;;22.13;;
68050;SDS011;54839;51.364;7.246;2024-03-08T01:54:41;27.43;;;20.37;;
68050;SDS011;54839;51.364;7.246;2024-03-08T01:57:07;27.70;;;21.20;;
68050;SDS011;54839;51.364;7.246;2024-03-08T01:59:33;30.60;;;22.40;;
68050;SDS011;54839;51.364;7.246;2024-03-08T02:02:00;29.23;;;21.87;;
68050;SDS011;54839;51.364;7.246;2024-03-08T02:04:27;26.73;;;22.53;;
68050;SDS011;54839;51.364;7.246;2024-03-08T02:06:55;22.27;;;19.87;;
68050;SDS011;54839;51.364;7.246;2024-03-08T02:09:23;26.90;;;21.40;;
68050;SDS011;54839;51.364;7.246;2024-03-08T02:11:49;29.33;;;22.70;;
68050;SDS011;54839;51.364;7.246;2024-03-08T02:14:16;27.73;;;23.10;;
68050;SDS011;54839;51.364;7.246;2024-03-08T02:16:43;27.90;;;20.43;;
68050;SDS011;54839;51.364;7.246;2024-03-08T02:19:09;34.30;;;22.23;;
68050;SDS011;54839;51.364;7.246;2024-03-08T02:21:35;28.43;;;22.30;;
68050;SDS011;54839;51.364;7.246;2024-03-08T02:24:01;30.30;;;23.50;;
68050;SDS011;54839;51.364;7.246;2024-03-08T02:26:27;29.47;;;22.70;;
68050;SDS011;54839;51.364;7.246;2024-03-08T02:28:52;28.13;;;22.23;;
68050;SDS011;54839;51.364;7.246;2024-03-08T02:31:19;29.43;;;21.40;;
68050;SDS011;54839;51.364;7.246;2024-03-08T02:33:45;29.77;;;22.70;;
68050;SDS011;54839;51.364;7.246;2024-03-08T02:36:12;29.17;;;22.60;;
68050;SDS011;54839;51.364;7.246;2024-03-08T02:38:38;33.73;;;22.43;;
68050;SDS011;54839;51.364;7.246;2024-03-08T02:41:05;25.97;;;21.00;;
68050;SDS011;54839;51.364;7.246;2024-03-08T02:43:31;33.63;;;23.50;;
68050;SDS011;54839;51.364;7.246;2024-03-08T02:45:57;29.73;;;22.20;;
68050;SDS011;54839;51.364;7.246;2024-03-08T02:48:22;32.33;;;22.57;;
68050;SDS011;54839;51.364;7.246;2024-03-08T02:50:48;28.10;;;23.10;;
68050;SDS011;54839;51.364;7.246;2024-03-08T02:53:15;29.67;;;21.90;;
68050;SDS011;54839;51.364;7.246;2024-03-08T02:55:41;30.60;;;22.57;;
68050;SDS011;54839;51.364;7.246;2024-03-08T02:58:07;27.60;;;22.83;;
68050;SDS011;54839;51.364;7.246;2024-03-08T03:00:36;30.67;;;23.90;;
68050;SDS011;54839;51.364;7.246;2024-03-08T03:03:06;29.60;;;23.00;;
68050;SDS011;54839;51.364;7.246;2024-03-08T03:05:32;27.80;;;21.97;;
68050;SDS011;54839;51.364;7.246;2024-03-08T03:07:58;26.67;;;21.33;;
68050;SDS011;54839;51.364;7.246;2024-03-08T03:10:24;28.03;;;21.10;;
68050;SDS011;54839;51.364;7.246;2024-03-08T03:12:50;29.43;;;23.37;;
68050;SDS011;54839;51.364;7.246;2024-03-08T03:15:17;31.33;;;24.40;;
68050;SDS011;54839;51.364;7.246;2024-03-08T03:17:49;34.37;;;23.50;;
68050;SDS011;54839;51.364;7.246;2024-03-08T03:20:18;25.77;;;21.10;;
68050;SDS011;54839;51.364;7.246;2024-03-08T03:22:57;29.20;;;23.30;;
68050;SDS011;54839;51.364;7.246;2024-03-08T03:25:26;28.63;;;22.30;;
68050;SDS011;54839;51.364;7.246;2024-03-08T03:27:57;30.90;;;23.30;;
68050;SDS011;54839;51.364;7.246;2024-03-08T03:30:23;32.23;;;23.50;;
68050;SDS011;54839;51.364;7.246;2024-03-08T03:32:52;29.90;;;22.00;;
68050;SDS011;54839;51.364;7.246;2024-03-08T03:35:19;29.50;;;23.27;;
68050;SDS011;54839;51.364;7.246;2024-03-08T03:37:48;35.67;;;23.70;;
68050;SDS011;54839;51.364;7.246;2024-03-08T03:40:31;33.67;;;23.90;;
68050;SDS011;54839;51.364;7.246;2024-03-08T03:43:06;29.90;;;22.20;;
68050;SDS011;54839;51.364;7.246;2024-03-08T03:45:32;32.17;;;24.07;;
68050;SDS011;54839;51.364;7.246;2024-03-08T03:48:00;28.13;;;23.80;;
68050;SDS011;54839;51.364;7.246;2024-03-08T03:50:29;30.73;;;23.23;;
68050;SDS011;54839;51.364;7.246;2024-03-08T03:52:55;33.23;;;25.03;;
68050;SDS011;54839;51.364;7.246;2024-03-08T03:55:21;32.50;;;22.77;;
68050;SDS011;54839;51.364;7.246;2024-03-08T03:57:47;28.60;;;22.37;;
68050;SDS011;54839;51.364;7.246;2024-03-08T04:00:13;31.97;;;24.27;;
68050;SDS011;54839;51.364;7.246;2024-03-08T04:02:38;29.10;;;21.70;;
68050;SDS011;54839;51.364;7.246;2024-03-08T04:05:08;34.67;;;23.83;;
68050;SDS011;54839;51.364;7.246;2024-03-08T04:07:35;29.90;;;22.73;;
68050;SDS011;54839;51.364;7.246;2024-03-08T04:10:01;33.43;;;24.27;;
68050;SDS011;54839;51.364;7.246;2024-03-08T04:12:34;29.73;;;22.97;;
68050;SDS011;54839;51.364;7.246;2024-03-08T04:15:00;30.80;;;22.60;;
68050;SDS011;54839;51.364;7.246;2024-03-08T04:17:25;29.43;;;21.90;;
68050;SDS011;54839;51.364;7.246;2024-03-08T04:19:51;33.57;;;23.57;;
68050;SDS011;54839;51.364;7.246;2024-03-08T04:22:17;30.40;;;22.40;;
68050;SDS011;54839;51.364;7.246;2024-03-08T04:24:46;30.43;;;24.30;;
68050;SDS011;54839;51.364;7.246;2024-03-08T04:27:12;33.00;;;22.87;;
68050;SDS011;54839;51.364;7.246;2024-03-08T04:29:39;31.23;;;23.63;;
68050;SDS011;54839;51.364;7.246;2024-03-08T04:32:05;30.87;;;23.17;;
68050;SDS011;54839;51.364;7.246;2024-03-08T04:34:33;30.70;;;24.07;;
68050;SDS011;54839;51.364;7.246;2024-03-08T04:36:59;33.83;;;24.87;;
68050;SDS011;54839;51.364;7.246;2024-03-08T04:39:26;34.57;;;24.30;;
68050;SDS011;54839;51.364;7.246;2024-03-08T04:41:55;37.13;;;25.90;;
68050;SDS011;54839;51.364;7.246;2024-03-08T04:44:24;30.87;;;23.80;;
68050;SDS011;54839;51.364;7.246;2024-03-08T04:46:50;30.50;;;22.83;;
68050;SDS011;54839;51.364;7.246;2024-03-08T04:49:15;31.70;;;23.53;;
68050;SDS011;54839;51.364;7.246;2024-03-08T04:51:41;35.47;;;24.13;;
68050;SDS011;54839;51.364;7.246;2024-03-08T04:54:07;29.57;;;23.10;;
68050;SDS011;54839;51.364;7.246;2024-03-08T04:56:33;28.07;;;23.03;;
68050;SDS011;54839;51.364;7.246;2024-03-08T04:58:58;31.70;;;23.33;;
68050;SDS011;54839;51.364;7.246;2024-03-08T05:01:24;40.03;;;25.87;;
68050;SDS011;54839;51.364;7.246;2024-03-08T05:03:50;33.20;;;25.40;;
68050;SDS011;54839;51.364;7.246;2024-03-08T05:06:16;33.67;;;24.17;;
68050;SDS011;54839;51.364;7.246;2024-03-08T05:08:42;36.80;;;25.33;;
68050;SDS011;54839;51.364;7.246;2024-03-08T05:11:07;34.93;;;23.60;;
68050;SDS011;54839;51.364;7.246;2024-03-08T05:13:33;36.97;;;25.67;;
68050;SDS011;54839;51.364;7.246;2024-03-08T05:16:02;34.93;;;23.73;;
68050;SDS011;54839;51.364;7.246;2024-03-08T05:18:28;32.67;;;23.80;;
68050;SDS011;54839;51.364;7.246;2024-03-08T05:20:54;36.43;;;27.13;;
68050;SDS011;54839;51.364;7.246;2024-03-08T05:23:19;34.67;;;26.13;;
68050;SDS011;54839;51.364;7.246;2024-03-08T05:25:45;33.83;;;25.10;;
68050;SDS011;54839;51.364;7.246;2024-03-08T05:28:14;36.97;;;26.07;;
68050;SDS011;54839;51.364;7.246;2024-03-08T05:30:39;33.80;;;25.13;;
68050;SDS011;54839;51.364;7.246;2024-03-08T05:33:05;35.30;;;26.10;;
68050;SDS011;54839;51.364;7.246;2024-03-08T05:35:30;35.00;;;25.70;;
68050;SDS011;54839;51.364;7.246;2024-03-08T05:37:57;36.10;;;25.10;;
68050;SDS011;54839;51.364;7.246;2024-03-08T05:40:23;33.47;;;24.07;;
68050;SDS011;54839;51.364;7.246;2024-03-08T05:42:49;34.67;;;24.60;;
68050;SDS011;54839;51.364;7.246;2024-03-08T05:45:15;39.13;;;24.33;;
68050;SDS011;54839;51.364;7.246;2024-03-08T05:47:40;39.63;;;26.13;;
68050;SDS011;54839;51.364;7.246;2024-03-08T05:50:07;37.23;;;25.93;;
68050;SDS011;54839;51.364;7.246;2024-03-08T05:52:35;40.20;;;26.57;;
68050;SDS011;54839;51.364;7.246;2024-03-08T05:55:02;42.83;;;26.00;;
68050;SDS011;54839;51.364;7.246;2024-03-08T05:57:32;43.13;;;27.03;;
68050;SDS011;54839;51.364;7.246;2024-03-08T05:59:57;36.90;;;25.30;;
68050;SDS011;54839;51.364;7.246;2024-03-08T06:02:23;36.73;;;29.13;;
68050;SDS011;54839;51.364;7.246;2024-03-08T06:04:48;34.80;;;26.77;;
68050;SDS011;54839;51.364;7.246;2024-03-08T06:07:14;40.23;;;27.90;;
68050;SDS011;54839;51.364;7.246;2024-03-08T06:09:41;39.60;;;27.60;;
68050;SDS011;54839;51.364;7.246;2024-03-08T06:12:10;34.47;;;24.93;;
68050;SDS011;54839;51.364;7.246;2024-03-08T06:14:36;34.80;;;26.30;;
68050;SDS011;54839;51.364;7.246;2024-03-08T06:17:02;36.60;;;26.93;;
68050;SDS011;54839;51.364;7.246;2024-03-08T06:19:31;33.87;;;24.43;;
68050;SDS011;54839;51.364;7.246;2024-03-08T06:21:56;31.37;;;24.47;;
68050;SDS011;54839;51.364;7.246;2024-03-08T06:24:22;32.27;;;24.33;;
68050;SDS011;54839;51.364;7.246;2024-03-08T06:26:47;33.83;;;24.20;;
68050;SDS011;54839;51.364;7.246;2024-03-08T06:29:13;40.80;;;25.77;;
68050;SDS011;54839;51.364;7.246;2024-03-08T06:31:40;35.20;;;23.43;;
68050;SDS011;54839;51.364;7.246;2024-03-08T06:34:06;38.27;;;26.07;;
68050;SDS011;54839;51.364;7.246;2024-03-08T06:36:33;34.20;;;24.53;;
68050;SDS011;54839;51.364;7.246;2024-03-08T06:38:58;34.47;;;23.10;;
68050;SDS011;54839;51.364;7.246;2024-03-08T06:41:24;36.83;;;23.77;;
68050;SDS011;54839;51.364;7.246;2024-03-08T06:43:49;35.57;;;25.57;;
68050;SDS011;54839;51.364;7.246;2024-03-08T06:46:17;33.60;;;23.57;;
68050;SDS011;54839;51.364;7.246;2024-03-08T06:48:43;35.10;;;24.17;;
68050;SDS011;54839;51.364;7.246;2024-03-08T06:51:10;41.53;;;24.90;;
68050;SDS011;54839;51.364;7.246;2024-03-08T06:53:36;36.97;;;24.93;;
68050;SDS011;54839;51.364;7.246;2024-03-08T06:56:02;34.00;;;24.37;;
68050;SDS011;54839;51.364;7.246;2024-03-08T06:58:28;37.97;;;25.67;;
68050;SDS011;54839;51.364;7.246;2024-03-08T07:00:53;39.80;;;26.40;;
68050;SDS011;54839;51.364;7.246;2024-03-08T07:03:23;35.27;;;24.87;;
68050;SDS011;54839;51.364;7.246;2024-03-08T07:05:49;41.00;;;25.73;;
68050;SDS011;54839;51.364;7.246;2024-03-08T07:08:16;33.87;;;25.23;;
68050;SDS011;54839;51.364;7.246;2024-03-08T07:10:42;36.47;;;25.07;;
68050;SDS011;54839;51.364;7.246;2024-03-08T07:13:08;34.60;;;24.07;;
68050;SDS011;54839;51.364;7.246;2024-03-08T07:15:33;33.60;;;23.90;;
68050;SDS011;54839;51.364;7.246;2024-03-08T07:18:00;34.63;;;23.93;;
68050;SDS011;54839;51.364;7.246;2024-03-08T07:20:26;31.87;;;22.57;;
68050;SDS011;54839;51.364;7.246;2024-03-08T07:22:51;33.23;;;22.47;;
68050;SDS011;54839;51.364;7.246;2024-03-08T07:25:17;29.30;;;22.30;;
68050;SDS011;54839;51.364;7.246;2024-03-08T07:27:52;30.87;;;21.13;;
68050;SDS011;54839;51.364;7.246;2024-03-08T07:30:20;32.23;;;24.00;;
68050;SDS011;54839;51.364;7.246;2024-03-08T07:33:05;30.57;;;21.67;;
68050;SDS011;54839;51.364;7.246;2024-03-08T07:35:32;27.50;;;20.80;;
68050;SDS011;54839;51.364;7.246;2024-03-08T07:37:58;36.67;;;22.87;;
68050;SDS011;54839;51.364;7.246;2024-03-08T07:40:25;26.13;;;20.67;;
68050;SDS011;54839;51.364;7.246;2024-03-08T07:42:50;28.97;;;19.10;;
68050;SDS011;54839;51.364;7.246;2024-03-08T07:45:16;31.13;;;22.17;;
68050;SDS011;54839;51.364;7.246;2024-03-08T07:47:42;33.60;;;23.30;;
68050;SDS011;54839;51.364;7.246;2024-03-08T07:50:08;27.37;;;21.37;;
68050;SDS011;54839;51.364;7.246;2024-03-08T07:52:34;29.50;;;22.57;;
68050;SDS011;54839;51.364;7.246;2024-03-08T07:55:01;31.17;;;23.73;;
68050;SDS011;54839;51.364;7.246;2024-03-08T07:57:28;37.67;;;26.23;;
68050;SDS011;54839;51.364;7.246;2024-03-08T07:59:55;34.90;;;25.30;;
68050;SDS011;54839;51.364;7.246;2024-03-08T08:02:20;31.80;;;22.87;;
68050;SDS011;54839;51.364;7.246;2024-03-08T08:04:46;34.27;;;24.57;;
68050;SDS011;54839;51.364;7.246;2024-03-08T08:07:12;28.57;;;21.80;;
68050;SDS011;54839;51.364;7.246;2024-03-08T08:09:37;31.80;;;22.73;;
68050;SDS011;54839;51.364;7.246;2024-03-08T08:12:03;31.20;;;21.90;;
68050;SDS011;54839;51.364;7.246;2024-03-08T08:14:29;30.33;;;23.70;;
68050;SDS011;54839;51.364;7.246;2024-03-08T08:16:55;31.00;;;21.80;;
68050;SDS011;54839;51.364;7.246;2024-03-08T08:19:22;31.20;;;22.87;;
68050;SDS011;54839;51.364;7.246;2024-03-08T08:21:48;29.27;;;20.90;;
68050;SDS011;54839;51.364;7.246;2024-03-08T08:24:13;30.30;;;23.27;;
68050;SDS011;54839;51.364;7.246;2024-03-08T08:26:39;32.37;;;23.30;;
68050;SDS011;54839;51.364;7.246;2024-03-08T08:29:05;25.97;;;19.63;;
68050;SDS011;54839;51.364;7.246;2024-03-08T08:31:31;34.63;;;24.73;;
68050;SDS011;54839;51.364;7.246;2024-03-08T08:33:58;26.63;;;20.20;;
68050;SDS011;54839;51.364;7.246;2024-03-08T08:36:26;26.70;;;20.13;;
68050;SDS011;54839;51.364;7.246;2024-03-08T08:38:54;31.67;;;26.07;;
68050;SDS011;54839;51.364;7.246;2024-03-08T08:41:21;33.33;;;23.40;;
68050;SDS011;54839;51.364;7.246;2024-03-08T08:43:47;28.93;;;23.43;;
68050;SDS011;54839;51.364;7.246;2024-03-08T08:46:17;26.37;;;19.33;;
68050;SDS011;54839;51.364;7.246;2024-03-08T08:48:42;28.97;;;23.50;;
68050;SDS011;54839;51.364;7.246;2024-03-08T08:51:10;30.13;;;21.80;;
68050;SDS011;54839;51.364;7.246;2024-03-08T08:53:40;28.33;;;21.57;;
68050;SDS011;54839;51.364;7.246;2024-03-08T08:56:08;33.73;;;22.57;;
68050;SDS011;54839;51.364;7.246;2024-03-08T08:58:35;30.13;;;21.17;;
68050;SDS011;54839;51.364;7.246;2024-03-08T09:01:01;26.17;;;20.87;;
68050;SDS011;54839;51.364;7.246;2024-03-08T09:03:27;27.97;;;20.40;;
68050;SDS011;54839;51.364;7.246;2024-03-08T09:05:54;28.37;;;21.80;;
68050;SDS011;54839;51.364;7.246;2024-03-08T09:08:21;27.20;;;21.03;;
68050;SDS011;54839;51.364;7.246;2024-03-08T09:10:47;31.77;;;22.90;;
68050;SDS011;54839;51.364;7.246;2024-03-08T09:13:13;32.97;;;23.63;;
68050;SDS011;54839;51.364;7.246;2024-03-08T09:15:39;27.93;;;21.90;;
68050;SDS011;54839;51.364;7.246;2024-03-08T09:18:06;27.20;;;20.70;;
68050;SDS011;54839;51.364;7.246;2024-03-08T09:20:33;30.20;;;21.20;;
68050;SDS011;54839;51.364;7.246;2024-03-08T09:22:58;30.57;;;22.23;;
68050;SDS011;54839;51.364;7.246;2024-03-08T09:25:25;26.00;;;20.47;;
68050;SDS011;54839;51.364;7.246;2024-03-08T09:27:51;27.10;;;20.37;;
68050;SDS011;54839;51.364;7.246;2024-03-08T09:30:16;27.27;;;20.53;;
68050;SDS011;54839;51.364;7.246;2024-03-08T09:32:43;29.13;;;21.23;;
68050;SDS011;54839;51.364;7.246;2024-03-08T09:35:08;30.60;;;21.03;;
68050;SDS011;54839;51.364;7.246;2024-03-08T09:37:36;28.10;;;22.10;;
68050;SDS011;54839;51.364;7.246;2024-03-08T09:40:02;27.63;;;21.10;;
68050;SDS011;54839;51.364;7.246;2024-03-08T09:42:34;29.40;;;21.90;;
68050;SDS011;54839;51.364;7.246;2024-03-08T09:45:03;29.70;;;22.43;;
68050;SDS011;54839;51.364;7.246;2024-03-08T09:47:42;26.47;;;20.80;;
68050;SDS011;54839;51.364;7.246;2024-03-08T09:50:08;31.57;;;21.13;;
68050;SDS011;54839;51.364;7.246;2024-03-08T09:52:40;27.03;;;20.43;;
68050;SDS011;54839;51.364;7.246;2024-03-08T09:55:09;30.67;;;22.57;;
68050;SDS011;54839;51.364;7.246;2024-03-08T09:57:38;27.33;;;21.20;;
68050;SDS011;54839;51.364;7.246;2024-03-08T10:00:05;29.67;;;23.77;;
68050;SDS011;54839;51.364;7.246;2024-03-08T10:02:46;34.00;;;24.80;;
68050;SDS011;54839;51.364;7.246;2024-03-08T10:05:12;35.13;;;22.40;;
68050;SDS011;54839;51.364;7.246;2024-03-08T10:07:38;29.73;;;21.90;;
68050;SDS011;54839;51.364;7.246;2024-03-08T10:10:04;27.73;;;21.67;;
68050;SDS011;54839;51.364;7.246;2024-03-08T10:12:30;29.17;;;20.90;;
68050;SDS011;54839;51.364;7.246;2024-03-08T10:14:58;26.33;;;19.80;;
68050;SDS011;54839;51.364;7.246;2024-03-08T10:17:23;28.97;;;21.40;;
68050;SDS011;54839;51.364;7.246;2024-03-08T10:19:50;24.43;;;21.23;;
68050;SDS011;54839;51.364;7.246;2024-03-08T10:22:19;28.43;;;20.37;;
68050;SDS011;54839;51.364;7.246;2024-03-08T10:24:46;26.83;;;21.63;;
68050;SDS011;54839;51.364;7.246;2024-03-08T10:27:12;28.53;;;23.03;;
68050;SDS011;54839;51.364;7.246;2024-03-08T10:29:37;19.57;;;14.90;;
68050;SDS011;54839;51.364;7.246;2024-03-08T10:32:08;16.47;;;13.17;;
68050;SDS011;54839;51.364;7.246;2024-03-08T10:34:34;16.63;;;13.37;;
68050;SDS011;54839;51.364;7.246;2024-03-08T10:37:03;17.40;;;13.73;;
68050;SDS011;54839;51.364;7.246;2024-03-08T10:39:36;18.83;;;13.80;;
68050;SDS011;54839;51.364;7.246;2024-03-08T10:42:03;21.63;;;15.27;;
68050;SDS011;54839;51.364;7.246;2024-03-08T10:47:02;18.87;;;13.83;;
68050;SDS011;54839;51.364;7.246;2024-03-08T10:50:17;18.47;;;13.10;;
68050;SDS011;54839;51.364;7.246;2024-03-08T10:52:29;18.53;;;13.67;;
68050;SDS011;54839;51.364;7.246;2024-03-08T10:54:54;18.60;;;14.53;;
68050;SDS011;54839;51.364;7.246;2024-03-08T10:57:22;18.10;;;14.53;;
68050;SDS011;54839;51.364;7.246;2024-03-08T10:59:49;16.00;;;13.23;;
68050;SDS011;54839;51.364;7.246;2024-03-08T11:02:16;17.20;;;15.00;;
68050;SDS011;54839;51.364;7.246;2024-03-08T11:04:46;20.47;;;13.33;;
68050;SDS011;54839;51.364;7.246;2024-03-08T11:07:14;15.93;;;12.70;;
68050;SDS011;54839;51.364;7.246;2024-03-08T11:09:43;16.53;;;13.90;;
68050;SDS011;54839;51.364;7.246;2024-03-08T11:12:20;17.87;;;13.30;;
68050;SDS011;54839;51.364;7.246;2024-03-08T11:14:50;14.67;;;12.97;;
68050;SDS011;54839;51.364;7.246;2024-03-08T11:17:20;15.00;;;12.70;;
68050;SDS011;54839;51.364;7.246;2024-03-08T11:19:50;16.17;;;12.57;;
68050;SDS011;54839;51.364;7.246;2024-03-08T11:22:26;14.83;;;12.70;;
68050;SDS011;54839;51.364;7.246;2024-03-08T11:24:58;13.87;;;12.40;;
68050;SDS011;54839;51.364;7.246;2024-03-08T11:27:28;13.83;;;11.10;;
68050;SDS011;54839;51.364;7.246;2024-03-08T11:30:02;13.70;;;11.93;;
68050;SDS011;54839;51.364;7.246;2024-03-08T11:32:47;14.43;;;10.53;;
68050;SDS011;54839;51.364;7.246;2024-03-08T11:35:20;11.03;;;9.80;;
68050;SDS011;54839;51.364;7.246;2024-03-08T11:37:48;15.40;;;11.23;;
68050;SDS011;54839;51.364;7.246;2024-03-08T11:40:14;13.67;;;10.67;;
68050;SDS011;54839;51.364;7.246;2024-03-08T11:42:44;15.40;;;12.57;;
68050;SDS011;54839;51.364;7.246;2024-03-08T11:45:12;13.07;;;11.27;;
68050;SDS011;54839;51.364;7.246;2024-03-08T11:47:40;13.60;;;11.83;;
68050;SDS011;54839;51.364;7.246;2024-03-08T11:50:07;13.80;;;11.83;;
68050;SDS011;54839;51.364;7.246;2024-03-08T11:52:36;12.40;;;9.73;;
68050;SDS011;54839;51.364;7.246;2024-03-08T11:55:04;13.03;;;11.73;;
68050;SDS011;54839;51.364;7.246;2024-03-08T11:57:30;16.10;;;11.03;;
68050;SDS011;54839;51.364;7.246;2024-03-08T11:59:57;15.20;;;11.83;;
68050;SDS011;54839;51.364;7.246;2024-03-08T12:02:24;13.67;;;10.53;;
68050;SDS011;54839;51.364;7.246;2024-03-08T12:04:59;15.27;;;10.50;;
68050;SDS011;54839;51.364;7.246;2024-03-08T12:07:25;12.17;;;10.43;;
68050;SDS011;54839;51.364;7.246;2024-03-08T12:12:43;11.23;;;9.70;;
68050;SDS011;54839;51.364;7.246;2024-03-08T12:15:12;10.67;;;9.53;;
68050;SDS011;54839;51.364;7.246;2024-03-08T12:17:40;13.80;;;11.70;;
68050;SDS011;54839;51.364;7.246;2024-03-08T12:20:20;16.80;;;11.50;;
68050;SDS011;54839;51.364;7.246;2024-03-08T12:22:56;13.50;;;10.93;;
68050;SDS011;54839;51.364;7.246;2024-03-08T12:25:32;12.93;;;9.40;;
68050;SDS011;54839;51.364;7.246;2024-03-08T12:28:08;13.73;;;10.97;;
68050;SDS011;54839;51.364;7.246;2024-03-08T12:30:48;11.47;;;10.30;;
68050;SDS011;54839;51.364;7.246;2024-03-08T12:33:16;12.47;;;9.97;;
68050;SDS011;54839;51.364;7.246;2024-03-08T12:35:49;10.07;;;9.07;;
68050;SDS011;54839;51.364;7.246;2024-03-08T12:38:19;9.50;;;7.87;;
68050;SDS011;54839;51.364;7.246;2024-03-08T12:40:54;10.73;;;8.90;;
68050;SDS011;54839;51.364;7.246;2024-03-08T12:43:20;9.60;;;8.20;;
68050;SDS011;54839;51.364;7.246;2024-03-08T12:45:46;10.73;;;8.50;;
68050;SDS011;54839;51.364;7.246;2024-03-08T12:48:14;10.47;;;8.40;;
68050;SDS011;54839;51.364;7.246;2024-03-08T12:50:40;12.57;;;9.63;;
68050;SDS011;54839;51.364;7.246;2024-03-08T12:53:09;11.23;;;8.90;;
68050;SDS011;54839;51.364;7.246;2024-03-08T12:55:34;12.07;;;9.90;;
68050;SDS011;54839;51.364;7.246;2024-03-08T12:58:00;10.70;;;9.07;;
68050;SDS011;54839;51.364;7.246;2024-03-08T13:00:25;10.00;;;8.40;;
68050;SDS011;54839;51.364;7.246;2024-03-08T13:02:53;11.83;;;9.50;;
68050;SDS011;54839;51.364;7.246;2024-03-08T13:05:19;11.33;;;9.97;;
68050;SDS011;54839;51.364;7.246;2024-03-08T13:07:45;10.50;;;8.30;;
68050;SDS011;54839;51.364;7.246;2024-03-08T13:10:12;9.83;;;8.30;;
68050;SDS011;54839;51.364;7.246;2024-03-08T13:12:40;10.47;;;7.53;;
68050;SDS011;54839;51.364;7.246;2024-03-08T13:15:09;9.20;;;7.70;;
68050;SDS011;54839;51.364;7.246;2024-03-08T13:17:55;9.47;;;8.00;;
68050;SDS011;54839;51.364;7.246;2024-03-08T13:20:25;10.90;;;7.50;;
68050;SDS011;54839;51.364;7.246;2024-03-08T13:22:53;8.83;;;7.73;;
68050;SDS011;54839;51.364;7.246;2024-03-08T13:25:19;8.50;;;7.60;;
68050;SDS011;54839;51.364;7.246;2024-03-08T13:27:45;8.83;;;7.97;;
68050;SDS011;54839;51.364;7.246;2024-03-08T13:30:11;9.40;;;8.40;;
68050;SDS011;54839;51.364;7.246;2024-03-08T13:32:41;8.30;;;7.57;;
68050;SDS011;54839;51.364;7.246;2024-03-08T13:35:10;8.70;;;7.80;;
68050;SDS011;54839;51.364;7.246;2024-03-08T13:37:40;9.57;;;8.60;;
68050;SDS011;54839;51.364;7.246;2024-03-08T13:40:07;11.33;;;9.87;;
68050;SDS011;54839;51.364;7.246;2024-03-08T13:42:38;9.60;;;8.80;;
68050;SDS011;54839;51.364;7.246;2024-03-08T13:45:05;10.83;;;8.93;;
68050;SDS011;54839;51.364;7.246;2024-03-08T13:47:33;8.90;;;8.00;;
68050;SDS011;54839;51.364;7.246;2024-03-08T13:49:59;9.10;;;8.23;;
68050;SDS011;54839;51.364;7.246;2024-03-08T13:52:25;11.47;;;10.37;;
68050;SDS011;54839;51.364;7.246;2024-03-08T13:54:54;12.03;;;9.90;;
68050;SDS011;54839;51.364;7.246;2024-03-08T13:57:20;9.80;;;8.90;;
68050;SDS011;54839;51.364;7.246;2024-03-08T13:59:47;12.37;;;11.10;;
68050;SDS011;54839;51.364;7.246;2024-03-08T14:02:16;9.80;;;8.90;;
68050;SDS011;54839;51.364;7.246;2024-03-08T14:04:42;10.87;;;9.80;;
68050;SDS011;54839;51.364;7.246;2024-03-08T14:07:08;12.70;;;10.27;;
68050;SDS011;54839;51.364;7.246;2024-03-08T14:09:34;10.60;;;9.50;;
68050;SDS011;54839;51.364;7.246;2024-03-08T14:12:02;10.40;;;8.90;;
68050;SDS011;54839;51.364;7.246;2024-03-08T14:14:32;12.90;;;11.70;;
68050;SDS011;54839;51.364;7.246;2024-03-08T14:17:00;10.50;;;9.40;;
68050;SDS011;54839;51.364;7.246;2024-03-08T14:19:27;10.83;;;9.73;;
68050;SDS011;54839;51.364;7.246;2024-03-08T14:21:53;11.20;;;9.63;;
68050;SDS011;54839;51.364;7.246;2024-03-08T14:24:19;11.07;;;10.17;;
68050;SDS011;54839;51.364;7.246;2024-03-08T14:26:45;9.90;;;8.90;;
68050;SDS011;54839;51.364;7.246;2024-03-08T14:29:11;13.53;;;12.33;;